KELY/ELY METAR and TAF weather

Enter ICAO airport designator
Station Type Date Time Source
KELY METAR 2021/03/02 02:53 UTC NOAA

KELY 020253Z AUTO 19011KT 10SM CLR 01/M12 A3020 RMK AO2 SLP263 T00111117 53010 $


Station Type Date Time Source
KELY Decoded METAR 2021/03/02 02:53 UTC NOAA

ELY AIRPORT (YELLAND FIELD), NV, United States (KELY) 39-18N 114-51W 1906M
Mar 01, 2021 - 09:53 PM EST / 2021.03.02 0253 UTC
Wind: from the S (190 degrees) at 13 MPH (11 KT):0
Visibility: 10 mile(s):0
Sky conditions: clear
Temperature: 34.0 F (1.1 C)
Windchill: 24 F (-4 C):1
Dew Point: 10.9 F (-11.7 C)
Relative Humidity: 37%
Pressure (altimeter): 30.2 in. Hg (1022 hPa)
Pressure tendency: 0.03 inches (1.0 hPa) higher than three hours ago
ob: KELY 020253Z AUTO 19011KT 10SM CLR 01/M12 A3020 RMK AO2 SLP263 T00111117 53010
cycle: 3

Station Type Date Time Source
KELY TAF 2021/03/01 18:22 UTC NOAA

TAF KELY 011720Z 0118/0218 19005KT P6SM SKC

Example: see airport list